North Wichita, Kansas
Current Conditions -  °F | °C
As of 8:54 AM on Saturday 20 Dec 2014 (Local Time) from KAAO Reporting Station
Clear Clear  
Wind Chill: 29°   Ceiling: Unl
Heat Index: 37°   Visibility: 9mi
Dew Point: 35°   Wind: 12mph
Humidity: 93%   Direction: 190°S
Pressure: 30.15"   Gusts: NA
Location:  37.7735°N, 97.3663°W
Report Text: KAAO 201454Z AUTO 19010KT 9SM CLR 03/02 A3015 RMK AO2 SLP221 T00280017 50001
Loading
Personal Weather Stations






























Interactive Weather Map New forecast layout! Learn more

10-Day Weather Forecast

Advertisements
Track Severe Weather on mobile